Tiempo atmosférico en la estación meteorológica de Reus Aeropuerto, Tarragona (71 m.)



Fecha
DESCASC
Temp. máxima en grados centígrados (hora)
DESCASC
Temp. mínima en grados centígrados (hora)
DESCASC
Temp. media en grados centígrados
DESCASC
Racha de viento máxima en m/sg (hora)
DESCASC
Velocidad máxima media en intervalos de 10 minutos(hora)
DESCASC
Precipitaciones diarias en mm
DESCASC
Precipitaciones de 00:00 a 06:00 en mm
DESCASC
Precipitaciones de 06:00 a 12:00 en mm
DESCASC
Precipitaciones de 12:00 a 18:00 en mm
DESCASC
Precipitaciones de 18:00 a 24:00 en mm
DESCASC
03-12-2020 -- (--) -- (--) -- -- (--) -- (--) -- -- -- 0 0
02-12-2020 13 (13:10) 5.2 (08:30) 9.1 16.94 (23:00) 12.5 (23:10) 0 0 0 0 0
01-12-2020 15.1 (13:10) 3.8 (08:00) 9.5 7.78 (23:00) 4.72 (23:00) 0 0 0 0 0
30-11-2020 18.9 (13:10) 5.7 (00:00) 12.3 4.72 (06:20) 3.89 (06:20) 0 0 0 0 0
29-11-2020 19.9 (13:20) 7.9 (00:00) 13.9 6.11 (13:50) 4.44 (13:50) 0 0 0 0 0
28-11-2020 14.8 (13:30) 9.1 (00:00) 12 11.67 (00:50) 7.78 (00:50) 19.1 17.9 1 0.2 0
27-11-2020 18.7 (13:30) 12 (00:00) 15.4 13.89 (20:30) 8.89 (13:40) 4.8 0 0 0.4 4.4
26-11-2020 18.9 (12:20) 12.1 (00:00) 15.5 9.17 (18:10) 6.11 (18:10) 0 0 0 0 0
25-11-2020 18.4 (12:20) 9.2 (00:00) 13.8 6.67 (13:50) 4.44 (07:40) 0 0 0 0 0
24-11-2020 17.6 (14:50) 3.5 (00:00) 10.6 6.11 (14:10) 4.17 (10:00) 0 0 0 0 0
23-11-2020 18 (14:10) 4.7 (00:00) 11.3 6.11 (13:40) 4.17 (15:50) 0 0 0 0 0
22-11-2020 16.6 (13:40) 3 (00:00) 9.8 6.11 (12:10) 4.17 (12:30) 0 0 0 0 0
21-11-2020 17.4 (14:30) 1.5 (00:00) 9.4 6.11 (15:00) 4.44 (15:10) 0 0 0 0 0
20-11-2020 17.7 (15:50) 7.2 (00:00) 12.5 15 (02:20) 10.83 (03:20) 0 0 0 0 0
19-11-2020 21.4 (14:50) 8 (00:00) 14.7 15.28 (21:00) 10.56 (21:00) 0 0 0 0 0
18-11-2020 20 (13:40) 8.4 (00:00) 14.2 6.11 (08:20) 4.72 (08:40) 0 0 0 0 0
17-11-2020 20.1 (13:40) 5.9 (00:00) 13 -- (--) -- (--) 0 0 0 0 0
16-11-2020 22 (14:20) 9.7 (00:00) 15.8 12.5 (14:20) 7.22 (15:20) 0 0 0 0 0
15-11-2020 22.3 (12:40) 9.9 (00:00) 16.1 10.83 (12:50) 6.94 (12:30) 0 0 0 0 0
14-11-2020 20.5 (12:10) 9.4 (00:00) 14.9 4.72 (13:20) 3.61 (01:50) 0 0 0 0 0
13-11-2020 20.5 (12:50) 9.3 (00:00) 14.9 -- (--) -- (--) 0 0 0 0 0
12-11-2020 19.9 (13:50) 8.8 (00:00) 14.3 4.17 (03:10) 3.33 (03:20) 0 0 0 0 0
11-11-2020 19.7 (12:10) 7.3 (00:00) 13.5 -- (--) -- (--) 0 0 0 0 0
10-11-2020 21.1 (13:40) 7.5 (00:00) 14.3 5.83 (09:10) 3.89 (00:30) 0 0 0 0 0
09-11-2020 20.4 (11:40) 7.7 (00:00) 14 4.72 (12:20) 3.61 (21:10) 0 0 0 0 0
08-11-2020 21 (14:00) 8.9 (00:00) 14.9 4.72 (14:30) 3.33 (00:10) 0 0 0 0 0
07-11-2020 19.7 (14:50) 12.2 (00:00) 16 -- (--) -- (--) 7.3 0 7.3 0 0
06-11-2020 18.5 (13:10) 14.7 (00:00) 16.6 11.39 (08:10) 8.61 (08:10) 6.6 6.6 0 0 0
05-11-2020 18 (12:50) 7.6 (00:00) 12.8 12.5 (22:10) 8.61 (22:10) 0 0 0 0 0

Gráficas

Temp. máximas Temp. mínimas Temp. medias Precipitaciones Rachas de viento máximas Velocidades máximas media en intervalos de 10 minutos

Datos horarios

Fecha y hora oficial Temperatura (ºC) Velocidad del viento (km/h) Dirección del viento Racha (km/h) Dirección de racha Precipitación (mm) Presión (hPa) Tendencia (hPa) Humedad (%)
2020-12-04 23:00:00 2.2 11 Norte 17 Norte 0 986.1 0.8 80
2020-12-04 22:00:00 2.7 11 Noroeste 15 Noroeste 0 985.8 -- 75
2020-12-04 21:00:00 3.8 10 Noroeste 13 Noroeste 0 985.6 -- 71
2020-12-04 20:00:00 5.6 8 Nordeste 18 Noroeste 0 985.3 -- 63
2020-12-04 19:00:00 6.8 6 Noroeste 13 Noroeste 0 984.8 -- 55
2020-12-04 18:00:00 8.9 7 Sudoeste 22 Oeste 0 984.3 -- 44
2020-12-04 17:00:00 11.2 9 Oeste 32 Oeste 0 983.8 -- 43
2020-12-04 16:00:00 12.5 20 Oeste 32 Oeste 0 983.6 -- 40
2020-12-04 15:00:00 11.6 22 Oeste 41 Oeste 0 983.8 -- 45
2020-12-04 14:00:00 11.6 33 Oeste 46 Oeste 0 983.7 -- 49
2020-12-04 13:00:00 12.2 33 Oeste 46 Oeste 0 983.8 -- 48
2020-12-04 12:00:00 10.3 15 Oeste 32 Sur 0 984.9 -- 56
2020-12-04 11:00:00 9.6 25 Oeste 50 Oeste 0 984.7 -- 60
2020-12-04 10:00:00 9.9 28 Oeste 50 Oeste 0 983.7 -- 59
2020-12-04 09:00:00 9.8 17 Sudoeste 33 Sudoeste 0 984 -- 62
2020-12-04 08:00:00 3.3 10 Nordeste 17 Nordeste 0 983.4 -- 83
2020-12-04 07:00:00 3 6 Noroeste 17 Noroeste 0 983.7 -- 84
2020-12-04 06:00:00 4 11 Noroeste 15 Noroeste 0 984.2 -- 78
2020-12-04 05:00:00 5 3 Oeste 17 Sur 0 985.1 -- 75
2020-12-04 04:00:00 5.6 9 Noroeste 13 Noroeste 0 986.1 -- 75
2020-12-04 03:00:00 8.1 9 Sudoeste 17 Sudoeste 0 987.1 -- 60
2020-12-04 02:00:00 6.2 3 Norte -- -- 0 988 -- 83
2020-12-04 01:00:00 6.2 4 Noroeste 9 Norte 0 989.2 -- 81
2020-12-04 00:00:00 6.5 5 Norte 11 Noroeste 0 990.5 -- 78
2020-12-03 23:00:00 6.7 8 Oeste 13 Noroeste 0 991.8 -- 78
2020-12-03 22:00:00 6.5 10 Oeste 13 Oeste 0 993 -- 81
2020-12-03 21:00:00 6.8 8 Oeste 15 Oeste 0 993.8 -- 79
2020-12-03 20:00:00 7.8 11 Oeste 18 Noroeste 0 994.9 -- 75
2020-12-03 19:00:00 8.3 8 Oeste 13 Oeste 0 995.6 -- 74
2020-12-03 18:00:00 8.9 9 Oeste 15 Sudoeste 0 996.3 -- 70
2020-12-03 17:00:00 11.5 11 Sudoeste 22 Sur 0 997.1 -- 59
2020-12-03 16:00:00 12.9 17 Sudoeste 26 Oeste 0 997.5 -- 53
2020-12-03 15:00:00 14 21 Oeste 30 Oeste 0 998.5 -- 46
2020-12-03 14:00:00 13.6 15 Sudoeste 26 Oeste 0 999.6 -- 46
2020-12-03 13:00:00 13.4 18 Oeste 26 Oeste 0 1000.6 -- 45
2020-12-03 12:00:00 12.3 4 Este 11 Este 0 1002 -- 45
2020-12-03 11:00:00 10.8 4 Nordeste 11 Nordeste 0 1003.1 -- 49
2020-12-03 10:00:00 8 7 Nordeste 11 Este 0 1003.4 -- 62
2020-12-03 09:00:00 4.4 5 Norte 15 Nordeste 0 1003.5 -- 72
2020-12-03 08:00:00 -- -- -- -- -- -- -- -- --
2020-12-03 07:00:00 -- -- -- -- -- -- -- -- --
2020-12-03 06:00:00 -- -- -- -- -- -- -- -- --
2020-12-03 05:00:00 -- -- -- -- -- -- -- -- --
2020-12-03 04:00:00 6.5 35 Oeste 55 Oeste 0 1004.5 -- 63
2020-12-03 03:00:00 6.3 25 Noroeste 42 Oeste 0 1004.9 -- 63
2020-12-03 02:00:00 6.3 26 Oeste 61 Oeste 0 1004.8 -- 60
2020-12-03 01:00:00 6.5 43 Oeste 61 Oeste 0 1005.1 -- 59
2020-12-03 00:00:00 6.6 32 Oeste 61 Oeste 0 1005.4 -- 57
2020-12-02 23:00:00 7.1 42 Oeste 61 Oeste 0 1005.2 -- 52
2020-12-02 22:00:00 7.7 30 Oeste 54 Oeste 0 1004.7 -- 48
2020-12-02 21:00:00 8.6 27 Oeste 41 Oeste 0 1004.4 -- 44
2020-12-02 20:00:00 9.2 19 Oeste 30 Oeste 0 1004 -- 41
2020-12-02 19:00:00 10.4 13 Oeste 37 Oeste 0 1003.7 -- 36
2020-12-02 18:00:00 10.4 19 Oeste 28 Oeste 0 1003.5 -- 38
2020-12-02 17:00:00 12.3 15 Oeste 33 Oeste 0 1003.2 -- 34
2020-12-02 16:00:00 12.9 19 Oeste 35 Oeste 0 1003 -- 35
2020-12-02 15:00:00 12.8 28 Oeste 45 Oeste 0 1002.7 -- 35
2020-12-02 14:00:00 12.5 27 Oeste 41 Oeste 0 1002.7 -- 39
2020-12-02 13:00:00 12.3 21 Oeste 30 Oeste 0 1003.2 -- 39
2020-12-02 12:00:00 10.3 17 Oeste 33 Oeste 0 1003.8 -- 47
2020-12-02 11:00:00 9.6 24 Oeste 35 Oeste 0 1003.8 -- 50
2020-12-02 10:00:00 8.5 19 Oeste 26 Oeste 0 1003.5 -- 53
2020-12-02 09:00:00 7.6 10 Noroeste 22 Oeste 0 1003 -- 61
2020-12-02 08:00:00 7.4 15 Oeste 22 Oeste 0 1002.2 -- 66
2020-12-02 07:00:00 7.1 11 Noroeste 32 Oeste 0 1002.2 -- 74
2020-12-02 06:00:00 7.4 16 Oeste 30 Oeste 0 1002.5 -- 78
2020-12-02 05:00:00 7.2 12 Oeste 15 Oeste 0 1002.6 -- 80
2020-12-02 04:00:00 9.4 8 Sudoeste 13 Oeste 0 1003.1 -- 75
2020-12-02 03:00:00 8.1 5 Noroeste 15 Norte 0 1003.9 -- 82
2020-12-02 02:00:00 7.5 7 Noroeste 13 Noroeste 0 1004.2 -- 86
2020-12-02 01:00:00 8.7 2 Oeste 17 Noroeste 0 1004.6 -- 78
2020-12-02 00:00:00 8 9 Norte 24 Noroeste 0 1004.7 -- 83
2020-12-01 23:00:00 9.3 17 Oeste 28 Oeste 0 1004.4 -- 71
2020-12-01 22:00:00 8.5 8 Sudeste 13 Sudeste 0 1005.4 -- 80
2020-12-01 21:00:00 8.6 10 Norte 18 Norte 0 1005.6 -- 82
2020-12-01 20:00:00 7.7 5 Este 8 Nordeste 0 1006.1 -- 88
2020-12-01 19:00:00 8 0 Calma 9 Nordeste 0 1006.5 -- 86
2020-12-01 18:00:00 9.5 2 Este 9 Este 0 1006.6 -- 80
2020-12-01 17:00:00 10.9 7 Este 9 Este 0 1007.2 -- 77
2020-12-01 16:00:00 12 5 Este 15 Nordeste 0 1007.7 -- 70
2020-12-01 15:00:00 13.4 3 Noroeste 22 Oeste 0 1008.3 -- 54
2020-12-01 14:00:00 14.5 6 Oeste 17 Oeste 0 1009.3 -- 55
2020-12-01 13:00:00 14.8 6 Este 11 Nordeste 0 1010.1 -- 60
2020-12-01 12:00:00 13.5 5 Este 13 Sudeste 0 1011.3 -- 62
2020-12-01 11:00:00 12.3 0 Calma 13 Nordeste 0 1012.1 -- 82
2020-12-01 10:00:00 8.8 7 Nordeste 11 Nordeste 0 1012.3 -- 93
2020-12-01 09:00:00 5.6 4 Sudoeste 8 Oeste 0 1012.4 -- 99
2020-12-01 08:00:00 3.9 0 Calma 5 Este 0 1012.3 -- 98
2020-12-01 07:00:00 4.5 2 Nordeste 8 Este 0 1012.1 -- 99
2020-12-01 06:00:00 4.8 3 Nordeste 8 Nordeste 0 1012.3 -- 98
2020-12-01 05:00:00 5.7 4 Noroeste 13 Norte 0 1012.4 -- 98
2020-12-01 04:00:00 5.2 9 Norte 13 Norte 0 1013 -- 98
2020-12-01 03:00:00 5.5 4 Norte 9 Norte 0 1013.6 -- 98
2020-12-01 02:00:00 6 2 Noroeste 9 Nordeste 0 1013.6 -- 98
2020-12-01 01:00:00 6.5 3 Norte 9 Norte 0 1014 -- 98
2020-12-01 00:00:00 6.5 6 Nordeste 9 Nordeste 0 1014 -- 96
2020-11-30 23:00:00 7.5 5 Norte 8 Nordeste 0 1014.1 -- 96
2020-11-30 22:00:00 8.5 7 Norte 11 Nordeste 0 1014.1 -- 96
2020-11-30 21:00:00 9.1 8 Norte 13 Norte 0 1014.1 -- 95
2020-11-30 20:00:00 10.1 10 Norte 15 Norte 0 1013.9 -- 94
2020-11-30 19:00:00 10.9 8 Norte 9 Norte 0 1013.6 -- 93
2020-11-30 18:00:00 12.8 0 Calma 8 Sur 0 1013.3 -- 84
2020-11-30 17:00:00 16.2 6 Sur 11 Sur 0 1013 -- 72
2020-11-30 16:00:00 18 8 Sur 15 Sur 0 1013 -- 63
2020-11-30 15:00:00 18.3 9 Sur 15 Sur 0 1013.2 -- 59
2020-11-30 14:00:00 18.9 8 Sur 13 Sur 0 1013.3 -- 56
2020-11-30 13:00:00 18.7 8 Sur 15 Sudeste 0 1013.5 -- 52
2020-11-30 12:00:00 17.9 4 Sur 13 Sur 0 1013.9 -- 56
2020-11-30 11:00:00 16.1 3 Sudeste 8 Sudeste 0 1014.2 -- 64
2020-11-30 10:00:00 13.1 0 Calma 5 Este 0 1013.6 -- 79
2020-11-30 09:00:00 8.6 3 Norte 9 Norte 0 1013.1 -- 93
2020-11-30 08:00:00 5.8 8 Norte 11 Norte 0 1012.3 -- 96
2020-11-30 07:00:00 6.7 5 Nordeste 17 Norte 0 1011.7 -- 94
2020-11-30 06:00:00 6.5 10 Norte -- -- 0 1011.3 -- 95
2020-11-30 05:00:00 -- 11 Norte 13 Norte 0 1011.2 -- --
2020-11-30 04:00:00 7.3 2 Norte 11 Norte 0 1011.1 -- 95
2020-11-30 03:00:00 7.6 8 Norte 11 Norte 0 1011 -- 95
2020-11-30 02:00:00 7.7 9 Norte 11 Norte 0 1010.9 -- 96
2020-11-30 01:00:00 7.7 8 Nordeste 11 Norte 0 1011 -- 95
2020-11-30 00:00:00 8.1 8 Norte 9 Norte 0 1010.9 -- 96
2020-11-29 23:00:00 9.2 6 Norte 17 Norte 0 1010.5 -- 92
2020-11-29 22:00:00 9.9 13 Norte 17 Norte 0 1010.1 -- 91
2020-11-29 21:00:00 9.9 10 Norte 13 Norte 0 1009.7 -- 91
2020-11-29 20:00:00 10.7 9 Norte 21 Norte 0 1009.1 -- 89
2020-11-29 19:00:00 11.1 7 Norte 9 Norte 0 1008.6 -- 89
2020-11-29 18:00:00 14 7 Sur 11 Sur 0 1008.1 -- 74
2020-11-29 17:00:00 17 9 Sur 17 Sudoeste 0 1007.6 -- 61
2020-11-29 16:00:00 18.6 12 Sudoeste 21 Sudoeste 0 1007.1 -- 54
2020-11-29 15:00:00 19.4 13 Sudoeste 21 Sudoeste 0 1006.9 -- 49
2020-11-29 14:00:00 19.1 15 Sudoeste 22 Sudoeste 0 1006.9 -- 51
2020-11-29 13:00:00 19.4 2 Sur 11 Sudeste 0 1007.1 -- 49
2020-11-29 12:00:00 17.9 5 Nordeste 11 Este 0 1007.4 -- 53
2020-11-29 11:00:00 16.9 8 Nordeste 15 Nordeste 0 1007.7 -- 64
2020-11-29 10:00:00 14.3 12 Norte 18 Nordeste 0 1007.1 -- 73
2020-11-29 09:00:00 11.9 9 Nordeste 15 Norte 0 1006.5 -- 85
2020-11-29 08:00:00 9.3 12 Nordeste 15 Este 0 1005.3 -- 94
2020-11-29 07:00:00 8.9 6 Norte 15 Norte 0 1004.6 -- 91
2020-11-29 06:00:00 10 12 Norte 17 Norte 0 1003.9 -- 89
2020-11-29 05:00:00 10.1 11 Norte 17 Norte 0 1003.4 -- 89
2020-11-29 04:00:00 9.6 10 Norte 17 Norte 0 1002.9 -- 91
2020-11-29 03:00:00 8.3 5 Norte 15 Norte 0 1002.8 -- 94
2020-11-29 02:00:00 8.9 10 Norte 13 Norte 0 1002.7 -- 94
2020-11-29 01:00:00 8.7 8 Noroeste 15 Nordeste 0 1002.5 -- 95
2020-11-29 00:00:00 9.1 10 Este 13 Nordeste 0 1002 -- 94
2020-11-28 23:00:00 10.7 9 Norte 17 Norte 0 1001.3 -- 90
2020-11-28 22:00:00 11.2 10 Norte 22 Norte 0 1000.9 -- 85
2020-11-28 21:00:00 11.9 15 Norte 21 Norte 0 1000.1 -- 82
2020-11-28 20:00:00 11.9 10 Norte 17 Nordeste 0 999.6 -- 81
2020-11-28 19:00:00 13.5 14 Norte 32 Norte 0 998.8 -- 74
2020-11-28 18:00:00 13.1 11 Norte 17 Norte 0 997.9 -- 78
2020-11-28 17:00:00 13.1 10 Nordeste 26 Nordeste 0.2 997.7 -- 83
2020-11-28 16:00:00 14.2 13 Norte 22 Norte 0 996.7 -- 71
2020-11-28 15:00:00 14.2 14 Norte 22 Norte 0 996.5 -- 74
2020-11-28 14:00:00 14.3 13 Norte 24 Norte 0 996.7 -- 73
2020-11-28 13:00:00 14.7 13 Norte 22 Norte 0 996.6 -- 69
2020-11-28 12:00:00 14 11 Norte 30 Norte 0 996.6 -- 72
2020-11-28 11:00:00 13.3 19 Norte 28 Norte 0 996.4 -- 75
2020-11-28 10:00:00 12.4 17 Norte 28 Norte 0 995.6 -- 84
2020-11-28 09:00:00 11.4 17 Norte 28 Norte 0 996.6 -- 88
2020-11-28 08:00:00 11.1 19 Norte 30 Nordeste 0.6 996.5 -- 90
2020-11-28 07:00:00 11.5 23 Norte 37 Norte 0.4 996 -- 89
2020-11-28 06:00:00 11.2 26 Norte 37 Nordeste 0.6 995.7 -- 92
2020-11-28 05:00:00 10.7 24 Norte 33 Norte 2.6 996.4 -- 97
2020-11-28 04:00:00 10.5 22 Norte 32 Norte 5.6 997.5 -- 98
2020-11-28 03:00:00 10.4 14 Nordeste 18 Norte 4 998.3 -- 97
2020-11-28 02:00:00 10.8 10 Este 37 Norte 4 998.7 -- 92
2020-11-28 01:00:00 12 27 Norte 42 Norte 1.1 997.7 -- 90
2020-11-28 00:00:00 12.1 25 Norte 35 Norte 0.8 998.5 -- 90
2020-11-27 23:00:00 12.5 14 Norte 22 Noroeste 0.6 999.2 -- 87
2020-11-27 22:00:00 13 11 Oeste 30 Nordeste 0.8 1000.1 -- 89
2020-11-27 21:00:00 13.1 17 Norte 50 Nordeste 1 999.7 -- 92
2020-11-27 20:00:00 13.4 26 Nordeste 48 Nordeste 0.6 999.9 -- 86
2020-11-27 19:00:00 13.9 18 Nordeste 39 Nordeste 0.6 999.8 -- 84
2020-11-27 18:00:00 14.4 24 Nordeste 35 Nordeste 0.4 1000.4 -- 82
2020-11-27 17:00:00 15.7 25 Nordeste 39 Nordeste 0 1000.4 -- 70
2020-11-27 16:00:00 16.3 26 Nordeste 39 Nordeste 0 1000.8 -- 72
2020-11-27 15:00:00 17.3 21 Este 37 Este 0 1000.9 -- 69
2020-11-27 14:00:00 17.4 25 Nordeste 46 Nordeste 0 1002 -- 70
2020-11-27 13:00:00 17.7 29 Nordeste 42 Nordeste 0 1002.5 -- 70
2020-11-27 12:00:00 16.1 20 Nordeste 35 Nordeste 0 1003.7 -- 79
2020-11-27 11:00:00 15.3 22 Nordeste 37 Nordeste 0 1004.6 -- 84
2020-11-27 10:00:00 15.2 26 Nordeste 37 Este 0 1004.6 -- 81
2020-11-27 09:00:00 15 22 Nordeste 35 Nordeste 0 1004.6 -- 80
2020-11-27 08:00:00 14.2 15 Nordeste 30 Nordeste 0 1004.4 -- 84
2020-11-27 07:00:00 13.9 14 Nordeste 32 Nordeste 0 1004.4 -- 84
2020-11-27 06:00:00 14.3 17 Norte 26 Norte 0 1004.3 -- 82
2020-11-27 05:00:00 14.6 17 Norte 30 Nordeste 0 1004.9 -- 80
2020-11-27 04:00:00 14.9 22 Nordeste 32 Norte 0 1005.3 -- 80
2020-11-27 03:00:00 14.8 21 Nordeste 32 Nordeste 0 1005.9 -- 83
2020-11-27 02:00:00 14.7 21 Nordeste 32 Nordeste 0 1006.3 -- 83
2020-11-27 01:00:00 14.9 19 Nordeste 30 Nordeste 0 1007.1 -- 83
2020-11-27 00:00:00 15.2 19 Nordeste 33 Nordeste 0 1007.4 -- 82
2020-11-26 23:00:00 15.2 17 Nordeste 26 Este 0 1007.5 -- 81
2020-11-26 22:00:00 15.1 14 Nordeste 28 Nordeste 0 1007.3 -- 81
2020-11-26 21:00:00 14.9 13 Nordeste 28 Nordeste 0 1007.5 -- 81
2020-11-26 20:00:00 15.3 15 Nordeste 22 Nordeste 0 1007.4 -- 79
2020-11-26 19:00:00 15.7 16 Nordeste 33 Nordeste 0 1007.2 -- 80
2020-11-26 18:00:00 15.9 18 Nordeste 28 Este 0 1007.2 -- 83
2020-11-26 17:00:00 16.5 14 Este 24 Este 0 1007.4 -- 79
2020-11-26 16:00:00 17.1 15 Este 30 Este 0 1006.7 -- 77
2020-11-26 15:00:00 16.7 20 Este 32 Este 0 1006.2 -- 80
2020-11-26 14:00:00 17.6 15 Este 26 Este 0 1007.1 -- 77
2020-11-26 13:00:00 17.7 15 Este 30 Este 0 1007.8 -- 75
2020-11-26 12:00:00 17.7 13 Este 24 Este 0 1008.2 -- 74
2020-11-26 11:00:00 17.1 13 Nordeste 26 Nordeste 0 1008.3 -- 72
2020-11-26 10:00:00 15.1 17 Nordeste 26 Norte 0 1008 -- 76
2020-11-26 09:00:00 13.3 18 Norte 26 Norte 0 1007.7 -- 81
2020-11-26 08:00:00 12.7 19 Norte 24 Norte 0 1007.4 -- 83
2020-11-26 07:00:00 13.1 13 Norte 21 Nordeste 0 1007.2 -- 83
2020-11-26 06:00:00 13.1 15 Norte 26 Norte 0 1007 -- 83
2020-11-26 05:00:00 12.8 18 Norte 24 Norte 0 1007 -- 83
2020-11-26 04:00:00 12.6 19 Norte 26 Norte 0 1007.2 -- 82
2020-11-26 03:00:00 12.7 18 Norte 24 Nordeste 0 1007.4 -- 82
2020-11-26 02:00:00 12.3 15 Norte 24 Norte 0 1007.5 -- 85
2020-11-26 01:00:00 12.4 13 Norte 18 Norte 0 1008.1 -- 88
2020-11-26 00:00:00 12.5 10 Norte 18 Nordeste 0 1008.2 -- 89
2020-11-25 23:00:00 12.7 14 Norte 18 Norte 0 1008.4 -- 85
2020-11-25 22:00:00 11 13 Norte 17 Norte 0 1008.3 -- 91
2020-11-25 21:00:00 10.3 12 Norte 13 Norte 0 1008.3 -- 91
2020-11-25 20:00:00 11.6 10 Norte 18 Norte 0 1008.3 -- 85
2020-11-25 19:00:00 13.3 0 Calma -- -- 0 1008.1 -- 80
2020-11-25 18:00:00 14.2 0 Calma 5 Sur 0 1007.7 -- 75
2020-11-25 17:00:00 15.9 6 Sur 15 Sudoeste 0 1007.6 -- 66
2020-11-25 16:00:00 17.4 9 Sur 22 Sudoeste 0 1007.4 -- 61
2020-11-25 15:00:00 17.8 13 Sur 22 Sur 0 1007.7 -- 58
2020-11-25 14:00:00 18 13 Sur 24 Sur 0 1007.9 -- 57
2020-11-25 13:00:00 17.6 14 Sur -- -- -- 1008.3 -- 61
2020-11-25 12:00:00 17.1 11 Sur 18 Sur 0 1008.8 -- 67
2020-11-25 11:00:00 15.9 9 Norte 17 Norte 0 1009.2 -- 75
2020-11-25 10:00:00 13.3 12 Norte 17 Norte 0 1009.3 -- 84
2020-11-25 09:00:00 12.4 13 Norte 18 Nordeste 0 1009.2 -- 88
2020-11-25 08:00:00 11.6 14 Norte 21 Norte 0 1008.9 -- 89
2020-11-25 07:00:00 10.8 14 Norte 17 Norte 0 1008.9 -- 91
2020-11-25 06:00:00 9.7 12 Norte 17 Norte 0 1008.7 -- 92
2020-11-25 05:00:00 10.5 13 Norte 17 Norte 0 1009 -- 90
2020-11-25 04:00:00 11.1 10 Norte 15 Norte 0 1009.3 -- 88
2020-11-25 03:00:00 11.1 9 Norte 15 Norte 0 1009.8 -- 87
2020-11-25 02:00:00 10.8 9 Nordeste 15 Norte 0 1010 -- 88
2020-11-25 01:00:00 11.3 11 Norte 18 Norte 0 1010.9 -- 87
2020-11-25 00:00:00 10.6 11 Norte 17 Norte 0 1011.1 -- 90
2020-11-24 23:00:00 9.7 12 Norte 15 Norte 0 1011.5 -- 92
2020-11-24 22:00:00 9.1 13 Norte 15 Norte 0 1011.5 -- 94
2020-11-24 21:00:00 -- 9 Norte 11 Norte 0 1011.7 -- --
2020-11-24 20:00:00 10.6 6 Norte 17 Noroeste 0 1011.9 -- 86
2020-11-24 19:00:00 11.3 9 Noroeste -- -- 0 1011.9 -- 85
2020-11-24 18:00:00 12.3 4 Noroeste 9 Sudoeste 0 1011.8 -- 80
2020-11-24 17:00:00 14.7 7 Sudoeste 17 Sudoeste 0 1011.9 -- 72
2020-11-24 16:00:00 16 11 Sudoeste 21 Sudoeste 0 1012.1 -- 66
2020-11-24 15:00:00 17.3 10 Sur 22 Sur 0 1012.5 -- 62
2020-11-24 14:00:00 16.1 13 Sudoeste 21 Sudoeste 0 1013.3 -- 66
2020-11-24 13:00:00 16.9 8 Sur 15 Sudoeste 0 1014 -- 63
2020-11-24 12:00:00 15.4 2 Sudoeste 9 Nordeste 0 1015.1 -- 64
2020-11-24 11:00:00 12.7 7 Nordeste 18 Norte 0 1015.8 -- 70
2020-11-24 10:00:00 11 15 Norte 21 Nordeste 0 1015.7 -- 73
2020-11-24 09:00:00 8.3 10 Nordeste 15 Nordeste 0 1015.8 -- 86
2020-11-24 08:00:00 4.3 12 Norte 15 Norte 0 1015.9 -- 96
2020-11-24 07:00:00 4.1 10 Norte 13 Norte 0 1015.9 -- 94
2020-11-24 06:00:00 4.1 10 Nordeste 13 Nordeste 0 1015.7 -- 93
2020-11-24 05:00:00 4.1 6 Nordeste 13 Norte 0 1015.8 -- 89
2020-11-24 04:00:00 4.9 12 Nordeste 15 Nordeste 0 1016 -- 88
2020-11-24 03:00:00 5.3 10 Nordeste 15 Nordeste 0 1016.5 -- 88
2020-11-24 02:00:00 5.1 10 Nordeste 13 Norte 0 1016.8 -- 88
2020-11-24 01:00:00 5 10 Nordeste 15 Norte 0 1017.3 -- 87
2020-11-24 00:00:00 5.4 6 Norte 11 Norte 0 1017.6 -- 83
2020-11-23 23:00:00 5.3 8 Norte 15 Norte 0 1017.9 -- 84
2020-11-23 22:00:00 5.7 9 Norte 13 Norte 0 1018.2 -- 82
2020-11-23 21:00:00 5.9 9 Norte 13 Norte 0 1018.2 -- 80
2020-11-23 20:00:00 6.6 7 Noroeste 9 Noroeste 0 1018.1 -- 79
2020-11-23 19:00:00 8.5 8 Norte 9 Norte 0 1017.9 -- 71
2020-11-23 18:00:00 11.5 9 Sudoeste 15 Sudoeste 0 1017.5 -- 57
2020-11-23 17:00:00 15.5 10 Sur 18 Sudoeste 0 1017.4 -- 53
2020-11-23 16:00:00 17 13 Sur 22 Sur 0 1017.5 -- 51
2020-11-23 15:00:00 17.3 13 Sur 22 Sur 0 1017.6 -- 53
2020-11-23 14:00:00 17.6 12 Sudoeste 22 Sudoeste 0 1018.1 -- 55
2020-11-23 13:00:00 17.2 13 Sur 21 Sur 0 1018.7 -- 59
2020-11-23 12:00:00 16.6 7 Sur 13 Sur 0 1019.5 -- 58
2020-11-23 11:00:00 14.5 4 Este 13 Nordeste 0 1020 -- 63
2020-11-23 10:00:00 11 11 Nordeste 13 Nordeste 0 1019.9 -- 78
2020-11-23 09:00:00 7.9 5 Norte 11 Norte 0 1019.5 -- 91
2020-11-23 08:00:00 5 9 Nordeste 13 Nordeste 0 1019.4 -- 94
2020-11-23 07:00:00 4.7 7 Nordeste 15 Norte 0 1019.3 -- 96
2020-11-23 06:00:00 5.2 9 Nordeste 15 Norte 0 1019.1 -- 96
2020-11-23 05:00:00 5.9 7 Nordeste 13 Nordeste 0 1018.9 -- 95
2020-11-23 04:00:00 6.9 9 Nordeste 11 Norte 0 1019.2 -- 96
2020-11-23 03:00:00 6.3 8 Nordeste 11 Norte 0 1019 -- 94
2020-11-23 02:00:00 8 5 Norte 11 Norte 0 1019 -- 94
2020-11-23 01:00:00 7.3 8 Nordeste 15 Norte 0 1019.4 -- 95
2020-11-23 00:00:00 6.3 9 Norte 13 Norte 0 1019.4 -- 96
2020-11-22 23:00:00 5.8 9 Norte -- -- 0 1019.5 -- 94
2020-11-22 22:00:00 7.4 11 Norte 15 Norte 0 1019.3 -- 92
2020-11-22 21:00:00 7.9 13 Norte 15 Norte 0 1019.1 -- 92
2020-11-22 20:00:00 8 7 Nordeste -- -- 0 1018.9 -- 90
2020-11-22 19:00:00 9 7 Noroeste 9 Norte 0 1018.5 -- 84
2020-11-22 18:00:00 11 8 Oeste 13 Sudoeste 0 1018.2 -- 77
2020-11-22 17:00:00 14.6 10 Sur 17 Sur 0 1018.1 -- 66
2020-11-22 16:00:00 15.8 12 Sur 18 Sur 0 1017.7 -- 60
2020-11-22 15:00:00 16.4 12 Sur 21 Sur 0 1017.8 -- 58
2020-11-22 14:00:00 16.4 14 Sur 21 Sur 0 1018.3 -- 56
2020-11-22 13:00:00 16.4 14 Sudoeste 22 Sudoeste 0 1018.9 -- 56
2020-11-22 12:00:00 15.8 12 Sur 21 Sur 0 1019.7 -- 59
2020-11-22 11:00:00 12.9 9 Nordeste 13 Este 0 1020.1 -- 63
2020-11-22 10:00:00 7.9 11 Nordeste 15 Nordeste 0 1020.2 -- 75
2020-11-22 09:00:00 6.3 9 Nordeste 13 Nordeste 0 1020.1 -- 83
2020-11-22 08:00:00 3.4 7 Norte 11 Norte 0 1020 -- 95
2020-11-22 07:00:00 3.5 9 Norte 13 Norte 0 1019.7 -- 94
2020-11-22 06:00:00 4 8 Norte 13 Norte 0 1019.3 -- 90
2020-11-22 05:00:00 3.4 12 Nordeste 15 Nordeste 0 1019.5 -- 95
2020-11-22 04:00:00 4.3 13 Norte 15 Norte 0 1019.8 -- 96
2020-11-22 03:00:00 4.1 12 Norte 15 Norte 0 1020 -- 94
2020-11-22 02:00:00 5.5 13 Norte 17 Norte 0 1020 -- 91
2020-11-22 01:00:00 5.1 12 Norte 15 Norte 0 1020.2 -- 93
2020-11-22 00:00:00 5.6 8 Norte 18 Norte 0 1020.4 -- 88
2020-11-21 23:00:00 5.1 13 Norte 15 Norte 0 1020.8 -- 92
2020-11-21 22:00:00 6.1 7 Norte 15 Norte 0 1020.9 -- 87
2020-11-21 21:00:00 6.5 12 Norte 15 Norte 0 1020.8 -- 88
2020-11-21 20:00:00 5.8 9 Nordeste -- -- 0 1020.6 -- 87
2020-11-21 19:00:00 8.2 12 Noroeste 13 Noroeste 0 1020.2 -- 82
2020-11-21 18:00:00 11 5 Oeste 9 Sur 0 1020.2 -- 70
2020-11-21 17:00:00 14 7 Sudeste 18 Sudeste 0 1020.3 -- 60
2020-11-21 16:00:00 15.2 13 Sudeste 22 Sudeste 0 1020.1 -- 56
2020-11-21 15:00:00 16.2 15 Sudeste 22 Sudeste 0 1019.9 -- 42
2020-11-21 14:00:00 17.1 11 Sur 18 Sur 0 1019.9 -- 31
2020-11-21 13:00:00 16.9 8 Sudeste 21 Sur 0 1020.4 -- 28
2020-11-21 12:00:00 15.9 5 Sudeste 13 Sudeste 0 1021.1 -- 31
2020-11-21 11:00:00 13.9 4 Este 11 Nordeste 0 1020.9 -- 41
2020-11-21 10:00:00 10.3 6 Este 9 Este 0 1020.4 -- 55
2020-11-21 09:00:00 6.3 5 Nordeste 15 Norte 0 1020.2 -- 71
2020-11-21 08:00:00 1.6 9 Nordeste 13 Nordeste 0 1019.7 -- 83
2020-11-21 07:00:00 2.4 9 Norte 15 Nordeste 0 1019.1 -- 80
2020-11-21 06:00:00 2.2 5 Nordeste 15 Norte 0 1018.9 -- 82
2020-11-21 05:00:00 2.8 7 Norte 15 Norte 0 1018.5 -- 81
2020-11-21 04:00:00 3.3 10 Nordeste 15 Nordeste 0 1018.5 -- 81
2020-11-21 03:00:00 3.9 10 Norte 13 Noroeste 0 1018.6 -- 79
2020-11-21 02:00:00 4.3 7 Oeste 11 Norte 0 1018.5 -- 76
2020-11-21 01:00:00 5.7 5 Norte 13 Nordeste 0 1019 -- 70
2020-11-21 00:00:00 7.7 8 Norte 18 Noroeste 0 1019 -- 57
2020-11-20 23:00:00 9.1 11 Norte 28 Oeste 0 1018.7 -- 54
2020-11-20 22:00:00 11.1 19 Oeste 30 Oeste 0 1017.8 -- 45
2020-11-20 21:00:00 11 13 Noroeste 22 Noroeste 0 1017.5 -- 49
2020-11-20 20:00:00 8.7 8 Noroeste 15 Noroeste 0 1017.1 -- 63
2020-11-20 19:00:00 10.1 5 Noroeste 13 Oeste 0 1016.5 -- 57
2020-11-20 18:00:00 12.8 4 Nordeste 17 Este 0 1016.3 -- 51
2020-11-20 17:00:00 16 11 Oeste 32 Oeste 0 1016.2 -- 40
2020-11-20 16:00:00 17.6 18 Oeste 33 Oeste 0 1016.4 -- 37
2020-11-20 15:00:00 17.3 22 Oeste 33 Oeste 0 1017.3 -- 37
2020-11-20 14:00:00 17 21 Oeste 33 Oeste 0 1018 -- 37
2020-11-20 13:00:00 16.2 22 Oeste 30 Oeste 0 1018.5 -- 38
2020-11-20 12:00:00 15.2 24 Oeste 37 Oeste 0 1019.6 -- 41
2020-11-20 11:00:00 13 12 Noroeste 33 Noroeste 0 1020 -- 50
2020-11-20 10:00:00 11.6 9 Noroeste 39 Noroeste 0 1020 -- 55
2020-11-20 09:00:00 10.4 24 Noroeste 42 Noroeste 0 1019.3 -- 55
2020-11-20 08:00:00 9.5 18 Noroeste 39 Noroeste 0 1019.1 -- 62
2020-11-20 07:00:00 9.6 12 Noroeste 35 Noroeste 0 1018.6 -- 64
2020-11-20 06:00:00 9.9 26 Oeste 37 Noroeste 0 1018.7 -- 64
2020-11-20 05:00:00 10.3 20 Oeste 50 Oeste 0 1019.1 -- 62
2020-11-20 04:00:00 10.7 26 Oeste 48 Oeste 0 1019.1 -- 62
2020-11-20 03:00:00 11.1 30 Oeste 54 Noroeste 0 1019.7 -- 65
2020-11-20 02:00:00 11.6 35 Oeste 50 Noroeste 0 1020.1 -- 64
2020-11-20 01:00:00 12.5 27 Oeste 45 Oeste 0 1020 -- 62
2020-11-20 00:00:00 13.3 26 Oeste 48 Oeste 0 1019.8 -- 62
2020-11-19 23:00:00 14.2 31 Oeste 45 Oeste 0 1019.4 -- 62
2020-11-19 22:00:00 15.5 32 Noroeste 55 Oeste 0 1019 -- 61
2020-11-19 21:00:00 16.7 38 Oeste 55 Oeste 0 1018.3 -- 60
2020-11-19 20:00:00 17.8 26 Oeste 45 Oeste 0 1018.3 -- 63
2020-11-19 19:00:00 15.6 10 Sudoeste 21 Oeste 0 1018.6 -- 74
2020-11-19 18:00:00 17.3 15 Oeste 33 Oeste 0 1018.9 -- 68
2020-11-19 17:00:00 18.8 22 Oeste 32 Oeste 0 1018.4 -- 58
2020-11-19 16:00:00 20.1 26 Oeste 46 Oeste 0 1018.3 -- 51
2020-11-19 15:00:00 21 32 Oeste 46 Oeste 0 1018.6 -- 48
2020-11-19 14:00:00 20.9 26 Oeste 45 Oeste 0 1018.9 -- 49
2020-11-19 13:00:00 20 34 Oeste 46 Oeste 0 1020 -- 53
2020-11-19 12:00:00 19.4 3 Oeste 9 Sudeste 0 1020.8 -- 59
2020-11-19 11:00:00 17.7 6 Sur 9 Sur 0 1021.4 -- 69
2020-11-19 10:00:00 15.8 3 Sudeste 11 Norte 0 1021 -- 86
2020-11-19 09:00:00 12 0 Calma 11 Norte 0 1020.6 -- 96
2020-11-19 08:00:00 8.3 9 Norte 13 Norte 0 1020.1 -- 98
2020-11-19 07:00:00 8.4 9 Norte 13 Norte 0 1019.8 -- 96
2020-11-19 06:00:00 8 4 Norte 5 Nordeste 0 1019.3 -- 96
2020-11-19 05:00:00 9.1 7 Norte 9 Norte 0 1019.3 -- 96
2020-11-19 04:00:00 9.5 6 Norte 13 Norte 0 1019.2 -- 95
2020-11-19 03:00:00 9.5 9 Nordeste 15 Nordeste 0 1019.2 -- 97
2020-11-19 02:00:00 10 5 Norte 11 Norte 0 1019.1 -- 95
2020-11-19 01:00:00 10.5 7 Norte 13 Nordeste 0 1019.3 -- 96
2020-11-19 00:00:00 11.5 12 Noroeste 15 Norte 0 1019.1 -- 95
2020-11-18 23:00:00 12.1 12 Noroeste 13 Norte 0 1019.2 -- 95
2020-11-18 22:00:00 13 10 Norte 13 Norte 0 1019.2 -- 94
2020-11-18 21:00:00 14.4 7 Norte -- -- 0 1018.8 -- 89
2020-11-18 20:00:00 15.5 2 Nordeste 5 Nordeste 0 1018.8 -- 88
2020-11-18 19:00:00 15.4 0 Calma 8 Sudeste 0 1018.4 -- 87
2020-11-18 18:00:00 15.5 5 Sur 11 Sudeste 0 1018.1 -- 84
2020-11-18 17:00:00 17.1 10 Sudeste 15 Sur 0 1017.7 -- 78
2020-11-18 16:00:00 17.6 11 Sur 17 Sur 0 1017.6 -- 77
2020-11-18 15:00:00 19.5 13 Sur 21 Sur 0 1017.5 -- 66
2020-11-18 14:00:00 19.8 12 Sur 21 Sur 0 1017.8 -- 64
2020-11-18 13:00:00 19.1 14 Sur 22 Sur 0 1018.6 -- 67
2020-11-18 12:00:00 18.8 6 Sur 13 Sur 0 1019.1 -- 67
2020-11-18 11:00:00 16 5 Nordeste 13 Nordeste 0 1019.4 -- 69
2020-11-18 10:00:00 13.1 10 Nordeste 15 Nordeste 0 1019.2 -- 75
2020-11-18 09:00:00 12 10 Nordeste 22 Norte 0 1019 -- 80
2020-11-18 08:00:00 11.6 16 Norte 21 Norte 0 1018.6 -- 82
2020-11-18 07:00:00 12.1 13 Norte 21 Norte 0 1018.1 -- 83
2020-11-18 06:00:00 11.6 13 Norte 18 Norte 0 1018.1 -- 84
2020-11-18 05:00:00 11 11 Nordeste 15 Norte 0 1018 -- 90
2020-11-18 04:00:00 10.8 11 Norte 15 Norte 0 1018.1 -- 91
2020-11-18 03:00:00 9.4 9 Nordeste 13 Norte 0 1018.4 -- 93
2020-11-18 02:00:00 9 13 Norte 17 Norte 0 1018.4 -- 93
2020-11-18 01:00:00 8.7 9 Nordeste 13 Norte 0 1018.5 -- 92
2020-11-18 00:00:00 9.1 10 Norte 15 Norte 0 1018.5 -- 91
2020-11-17 23:00:00 9 5 Norte -- -- 0 1018.5 -- 92
2020-11-17 22:00:00 10.4 9 Norte 15 Norte 0 1018.3 -- 86
2020-11-17 21:00:00 11.4 12 Norte 15 Norte 0 1018.3 -- 85
2020-11-17 20:00:00 11.4 13 Norte 13 Norte 0 1018.1 -- 88
2020-11-17 19:00:00 12.1 9 Noroeste 11 Noroeste 0 1018 -- 83
2020-11-17 18:00:00 14.6 4 Sudoeste -- -- 0 1017.4 -- 72
2020-11-17 17:00:00 18 7 Sur 13 Sur 0 1017.1 -- 59
2020-11-17 16:00:00 19.3 9 Sur 13 Sur 0 1016.8 -- 48
2020-11-17 15:00:00 19.6 8 Sur 15 Sur 0 1017.1 -- 47
2020-11-17 14:00:00 19.9 10 Sudeste 18 Sur 0 1017.3 -- 43
2020-11-17 13:00:00 19.4 6 Este 13 Sudeste 0 1017.8 -- 41
2020-11-17 12:00:00 18.2 3 Este 9 Este 0 1018.2 -- 46
2020-11-17 11:00:00 16.4 5 Nordeste 11 Este 0 1018.6 -- 53
2020-11-17 10:00:00 13.8 9 Nordeste 13 Nordeste 0 1018.5 -- 71
2020-11-17 09:00:00 9.8 6 Nordeste 13 Norte 0 1017.7 -- 87
2020-11-17 08:00:00 6.5 6 Noroeste 11 Noroeste 0 1016.9 -- 94
2020-11-17 07:00:00 6.5 6 Norte 13 Norte 0 1016.6 -- 94
2020-11-17 06:00:00 6.9 6 Noroeste 9 Norte 0 1016.2 -- 94
2020-11-17 05:00:00 6.5 8 Nordeste 11 Nordeste 0 1016 -- 94
2020-11-17 04:00:00 7.2 6 Noroeste 15 Norte 0 1016.1 -- 95
2020-11-17 03:00:00 7.4 8 Norte 9 Norte 0 1016.2 -- 94
2020-11-17 02:00:00 7.9 2 Noroeste -- -- -- 1016.5 -- 91
2020-11-17 01:00:00 9 6 Noroeste 13 Nordeste 0 1016.7 -- 87
2020-11-17 00:00:00 10.5 8 Este 13 Este 0 1016.8 -- 84
2020-11-16 23:00:00 10.1 9 Este 13 Nordeste 0 1016.5 -- 92
2020-11-16 22:00:00 11.5 5 Noroeste 13 Norte 0 1016.4 -- 84
2020-11-16 21:00:00 13.4 9 Noroeste 21 Norte 0 1016 -- 83
2020-11-16 20:00:00 13.5 11 Noroeste 18 Noroeste 0 1015.3 -- 89
2020-11-16 19:00:00 15 10 Noroeste 15 Noroeste 0 1014.7 -- 87
2020-11-16 18:00:00 16.3 9 Nordeste 24 Nordeste 0 1014.5 -- 82
2020-11-16 17:00:00 18.2 10 Este 28 Oeste 0 1013.9 -- 68
2020-11-16 16:00:00 20.8 20 Oeste 33 Oeste 0 1013.1 -- 42
2020-11-16 15:00:00 21.3 22 Sudoeste 45 Oeste 0 1012.6 -- 45
2020-11-16 14:00:00 21.5 20 Oeste 37 Oeste 0 1012.4 -- 46
2020-11-16 13:00:00 20.6 19 Sudeste 32 Este 0 1012.6 -- 59
2020-11-16 12:00:00 20 14 Sudeste 24 Sur 0 1013.3 -- 63
2020-11-16 11:00:00 19.6 6 Oeste 11 Oeste 0 1013.5 -- 71
2020-11-16 10:00:00 18 6 Noroeste 13 Sudeste 0 1013.1 -- 75
2020-11-16 09:00:00 16.6 8 Sur 21 Sudeste 0 1012.2 -- 80
2020-11-16 08:00:00 15.9 8 Sur 18 Sur 0 1010.8 -- 86
2020-11-16 07:00:00 16.1 6 Sudeste 15 Norte 0 1009.6 -- 76
2020-11-16 06:00:00 17.7 6 Oeste 15 Sur 0 1009 -- 70
2020-11-16 05:00:00 17.7 9 Sudeste 18 Sudoeste 0 1008.4 -- 69
2020-11-16 04:00:00 17 5 Sudeste 13 Este 0 1008.6 -- 72
2020-11-16 03:00:00 18.3 0 Calma 17 Sudoeste 0 1008.4 -- 66
2020-11-16 02:00:00 17.6 6 Sudoeste 18 Sudeste 0 1008.7 -- 71
2020-11-16 01:00:00 19.3 10 Oeste 24 Oeste 0 1008.8 -- 63
2020-11-16 00:00:00 19.1 12 Oeste 22 Oeste 0 1008.6 -- 64
2020-11-15 23:00:00 18.1 17 Oeste 24 Oeste 0 1008.7 -- 71
2020-11-15 22:00:00 15.2 7 Sudoeste 11 Sudoeste 0 1008.9 -- 93
2020-11-15 21:00:00 15.5 5 Oeste 11 Oeste 0 1008.7 -- 92
2020-11-15 20:00:00 15.7 -- -- -- -- 0 1008.7 -- 93
2020-11-15 19:00:00 16.3 0 Calma 9 Sudoeste 0 1008.8 -- 86
2020-11-15 18:00:00 17 3 Sudoeste 15 Sur 0 1008.6 -- 80
2020-11-15 17:00:00 18 12 Sur 24 Sudoeste 0 1008.5 -- 73
2020-11-15 16:00:00 19.7 17 Sudoeste 30 Sudoeste 0 1008.5 -- 65
2020-11-15 15:00:00 21.2 23 Sudoeste 33 Sudoeste 0 1008.7 -- 60
2020-11-15 14:00:00 21.1 21 Sur 30 Sudoeste 0 1008.7 -- 60
2020-11-15 13:00:00 22 18 Sudoeste 39 Oeste 0 1009.4 -- 55
2020-11-15 12:00:00 21 19 Sudoeste 30 Sudoeste 0 1010.2 -- 60
2020-11-15 11:00:00 18.7 7 Sur 13 Sur 0 1010.1 -- 68
2020-11-15 10:00:00 15.9 5 Nordeste 13 Norte 0 1010.5 -- 79
2020-11-15 09:00:00 12.7 10 Nordeste 15 Nordeste 0 1010.4 -- 92
2020-11-15 08:00:00 10.3 5 Norte 13 Norte 0 1010.3 -- 96
2020-11-15 07:00:00 10 8 Norte 9 Norte 0 1009.8 -- 97
2020-11-15 06:00:00 10.6 8 Norte 9 Norte 0 1009.8 -- 96
2020-11-15 05:00:00 11.7 6 Norte 8 Noroeste 0 1009.7 -- 95
2020-11-15 04:00:00 13.1 4 Norte 9 Norte 0 1009.9 -- 93
2020-11-15 03:00:00 13.8 8 Norte -- -- 0 1010.3 -- 93
2020-11-15 02:00:00 14 9 Norte 9 Norte 0 1010.6 -- 93
2020-11-15 01:00:00 14.1 9 Norte 9 Norte 0 1011.1 -- 95
2020-11-15 00:00:00 13.9 5 Noroeste 8 Norte 0 1011.4 -- 96
2020-11-14 23:00:00 14.2 5 Norte 9 Norte 0 1011.6 -- 96
2020-11-14 22:00:00 14.4 0 Calma 4 Sur 0 1011.5 -- 95
2020-11-14 21:00:00 14.9 0 Calma 8 Noroeste 0 1011.4 -- 94
2020-11-14 20:00:00 15.1 7 Oeste 13 Noroeste 0 1011.4 -- 92
2020-11-14 19:00:00 15 7 Oeste 9 Oeste 0 1011.1 -- 92
2020-11-14 18:00:00 15.5 -- -- -- -- 0 1010.9 -- 90
2020-11-14 17:00:00 16.8 9 Sudoeste 13 Sudoeste 0 1010.8 -- 82
2020-11-14 16:00:00 18 9 Sudoeste 15 Sur 0 1010.8 -- 75
2020-11-14 15:00:00 19.5 9 Sur 17 Sur 0 1011.1 -- 68
2020-11-14 14:00:00 20.2 10 Sur 17 Sur 0 1011.4 -- 65
2020-11-14 13:00:00 19.6 9 Sur 15 Sur 0 1012 -- 68
2020-11-14 12:00:00 20.2 5 Sur 13 Sur 0 1012.7 -- 66
2020-11-14 11:00:00 18.2 4 Nordeste 11 Norte 0 1012.8 -- 67
2020-11-14 10:00:00 13.9 8 Nordeste 11 Nordeste 0 1012.8 -- 86
2020-11-14 09:00:00 12.2 7 Norte 13 Nordeste 0 1012.7 -- 91
2020-11-14 08:00:00 10 7 Nordeste 13 Norte 0 1012.2 -- 95
2020-11-14 07:00:00 10 9 Norte 13 Norte 0 1012 -- 94
2020-11-14 06:00:00 9.5 8 Nordeste 11 Norte 0 1011.8 -- 95
2020-11-14 05:00:00 9.6 7 Nordeste 11 Norte 0 1011.9 -- 95
2020-11-14 04:00:00 9.9 7 Nordeste 13 Norte 0 1012 -- 95
2020-11-14 03:00:00 10.3 7 Nordeste 13 Norte 0 1012.4 -- 94
2020-11-14 02:00:00 12 13 Norte 15 Norte 0 1012.6 -- 93
2020-11-14 01:00:00 11.5 11 Norte 15 Norte 0 1013.3 -- 95
2020-11-14 00:00:00 11.7 11 Norte 13 Norte 0 1013.4 -- 97
2020-11-13 23:00:00 11 6 Nordeste 13 Norte 0 1013.3 -- 96
2020-11-13 22:00:00 12.1 10 Norte 13 Norte 0 1013.4 -- 95
2020-11-13 21:00:00 12.3 -- -- -- -- 0 1013.1 -- 95
2020-11-13 20:00:00 12.5 11 Norte 13 Norte 0 1012.9 -- 94
2020-11-13 19:00:00 13.9 0 Calma -- -- 0 1012.6 -- 90
2020-11-13 18:00:00 15.6 -- -- -- -- 0 1012.1 -- 83
2020-11-13 17:00:00 16.8 6 Sudoeste 11 Sudoeste 0 1011.9 -- 77
2020-11-13 16:00:00 17.6 8 Sudoeste 13 Sur 0 1011.6 -- 72
2020-11-13 15:00:00 18.4 9 Sur 17 Sur 0 1011.7 -- 68
2020-11-13 14:00:00 19.1 13 Sur 17 Sur 0 1011.9 -- 65
2020-11-13 13:00:00 20 6 Sur 17 Sudoeste 0 1012.3 -- 60
2020-11-13 12:00:00 18.8 7 Sur 11 Sur 0 1013 -- 64
2020-11-13 11:00:00 16.9 6 Nordeste 15 Norte 0 1013.3 -- 69
2020-11-13 10:00:00 14.4 11 Norte 15 Nordeste 0 1013.3 -- 80
2020-11-13 09:00:00 10.5 6 Norte 9 Norte 0 1013.3 -- 95
2020-11-13 08:00:00 9.9 5 Norte -- -- 0 1012.9 -- 95
2020-11-13 07:00:00 9.9 12 Norte 15 Norte 0 1012.3 -- 95
2020-11-13 06:00:00 9.3 6 Norte 9 Norte 0 1012.3 -- 95
2020-11-13 05:00:00 9.9 8 Nordeste 11 Norte 0 1012.3 -- 92
2020-11-13 04:00:00 10.6 6 Norte 13 Norte 0 1012.6 -- 92
2020-11-13 03:00:00 10.6 11 Norte 13 Norte 0 1012.8 -- 93
2020-11-13 02:00:00 10.6 10 Norte 13 Norte 0 1013.2 -- 93
2020-11-13 01:00:00 10.3 5 Norte 11 Norte 0 1013.8 -- 93
2020-11-13 00:00:00 10.8 8 Norte 9 Norte 0 1013.9 -- 92
2020-11-12 23:00:00 10.6 5 Norte 13 Norte 0 1013.9 -- 93
2020-11-12 22:00:00 10.8 9 Norte 13 Norte 0 1013.9 -- 93
2020-11-12 21:00:00 10.8 8 Norte 13 Norte 0 1013.6 -- 92
2020-11-12 20:00:00 11.9 11 Noroeste -- -- 0 1013.7 -- 92
2020-11-12 19:00:00 12.3 8 Norte 9 Norte 0 1013.6 -- 90
2020-11-12 18:00:00 14.3 2 Sur -- -- 0 1013.2 -- 84
2020-11-12 17:00:00 16.3 7 Sudoeste 11 Sudoeste 0 1013.1 -- 75
2020-11-12 16:00:00 17.6 8 Sudoeste 11 Sur 0 1013.2 -- 63
2020-11-12 15:00:00 18.4 6 Sur 15 Sur 0 1013.1 -- 61
2020-11-12 14:00:00 19.7 8 Sudoeste 15 Sur 0 1013.6 -- 60
2020-11-12 13:00:00 19.3 9 Sur 15 Sur 0 1014.1 -- 63
2020-11-12 12:00:00 18.9 7 Sudeste 13 Sudeste 0 1014.6 -- 64
2020-11-12 11:00:00 15.9 6 Norte 15 Norte 0 1015 -- 76
2020-11-12 10:00:00 13.7 3 Norte 13 Nordeste 0 1014.8 -- 87
2020-11-12 09:00:00 10.9 10 Norte 13 Norte 0 1014.5 -- 94
2020-11-12 08:00:00 9.3 9 Norte 11 Norte 0 1014.1 -- 97
2020-11-12 07:00:00 9.2 8 Nordeste 11 Norte 0 1013.6 -- 96
2020-11-12 06:00:00 9.1 6 Norte 11 Norte 0 1013.3 -- 96
2020-11-12 05:00:00 9.9 6 Norte 15 Norte 0 1013.5 -- 95
2020-11-12 04:00:00 10.1 12 Norte 15 Norte 0 1013.8 -- 96
2020-11-12 03:00:00 9.2 10 Norte 13 Norte 0 1014.2 -- 97
2020-11-12 02:00:00 10 11 Norte 13 Norte 0 1014.5 -- 96
2020-11-12 01:00:00 10.7 10 Norte 13 Norte 0 1014.9 -- 95
2020-11-12 00:00:00 11.1 6 Norte 13 Norte 0 1014.7 -- 94
2020-11-11 23:00:00 11.3 9 Norte 13 Norte 0 1014.8 -- 96
2020-11-11 22:00:00 10.8 8 Norte -- -- 0 -- -- 96
2020-11-11 21:00:00 10.8 6 Este 8 Este 0 1014.6 -- 94
2020-11-11 20:00:00 12.8 7 Noroeste 13 Norte 0 1014.9 -- 94
2020-11-11 19:00:00 12.7 0 Calma -- -- 0 1014.6 -- 87
2020-11-11 18:00:00 14.8 6 Sudoeste 15 Sudoeste 0 1014.1 -- 85
2020-11-11 17:00:00 17.3 11 Sudoeste 21 Sudoeste 0 1014.2 -- 72
2020-11-11 16:00:00 18.6 14 Sur 26 Sudoeste 0 1014.3 -- 63
2020-11-11 15:00:00 19.1 19 Sur 26 Sur 0 1014.4 -- 59
2020-11-11 14:00:00 19.4 18 Sur 28 Sur 0 1014.7 -- 58
2020-11-11 13:00:00 19.5 15 Sur 21 Sur 0 1015.5 -- 58
2020-11-11 12:00:00 19.5 14 Sur 22 Sur 0 1016.3 -- 56
2020-11-11 11:00:00 18.1 0 Calma 9 Nordeste 0 1016.7 -- 62
2020-11-11 10:00:00 15 6 Nordeste 11 Norte 0 1017 -- 76
2020-11-11 09:00:00 11.1 10 Norte 13 Norte 0 1017.1 -- 90
2020-11-11 08:00:00 8.1 7 Norte 11 Norte 0 1017 -- 96
2020-11-11 07:00:00 7.8 8 Norte 9 Norte 0 1016.9 -- 96
2020-11-11 06:00:00 8.1 7 Norte 11 Norte 0 1016.9 -- 96
2020-11-11 05:00:00 7.8 9 Nordeste 11 Nordeste 0 1017.1 -- 96
2020-11-11 04:00:00 8.7 8 Norte 9 Nordeste 0 1017.2 -- 95
2020-11-11 03:00:00 9.1 5 Norte 11 Norte 0 1017.7 -- 95
2020-11-11 02:00:00 9.4 7 Norte 11 Norte 0 1018.1 -- 95
2020-11-11 01:00:00 10 6 Norte 17 Norte 0 1018.3 -- 93
2020-11-11 00:00:00 10.8 13 Norte 17 Norte 0 1018.2 -- 91
2020-11-10 23:00:00 10.8 6 Norte 13 Norte 0 1018.2 -- 91
2020-11-10 22:00:00 11.1 9 Norte 13 Norte 0 1018 -- 90
2020-11-10 21:00:00 11.7 6 Norte 13 Nordeste 0 1017.9 -- 89
2020-11-10 20:00:00 12.6 10 Norte 17 Nordeste 0 1017.4 -- 88
2020-11-10 19:00:00 14.5 9 Nordeste 15 Norte 0 1017.2 -- 78
2020-11-10 18:00:00 17.8 0 Calma 11 Este 0 1017 -- 61
2020-11-10 17:00:00 19.1 8 Sudeste 15 Sudeste 0 1016.5 -- 58
2020-11-10 16:00:00 20.1 9 Sudeste 17 Sudeste 0 1016.1 -- 53
2020-11-10 15:00:00 20.4 12 Sudeste 18 Sur 0 1015.9 -- 52
2020-11-10 14:00:00 20.5 12 Sudeste 18 Sudeste 0 1016.1 -- 53
2020-11-10 13:00:00 20.5 6 Sur 13 Sudeste 0 1016.5 -- 52
2020-11-10 12:00:00 19.3 4 Sudeste 11 Sudeste 0 1017.1 -- 55
2020-11-10 11:00:00 18.4 2 Sur 18 Norte 0 1017.4 -- 59
2020-11-10 10:00:00 15.7 10 Norte 21 Nordeste 0 1017.1 -- 72
2020-11-10 09:00:00 12.2 11 Norte 15 Norte 0 1016.4 -- 89
2020-11-10 08:00:00 8.2 5 Nordeste 13 Norte 0 1015.6 -- 96
2020-11-10 07:00:00 7.7 8 Norte 9 Norte 0 1015 -- 97
2020-11-10 06:00:00 8.3 7 Noroeste -- -- 0 1014.7 -- 96
2020-11-10 05:00:00 8.3 6 Nordeste 13 Nordeste 0 1014.3 -- 95
2020-11-10 04:00:00 9.6 2 Norte 9 Norte 0 1014.2 -- 93
2020-11-10 03:00:00 10.5 6 Nordeste 13 Nordeste 0 1014.1 -- 91
2020-11-10 02:00:00 10.5 10 Nordeste 13 Nordeste 0 1013.9 -- 92
2020-11-10 01:00:00 10.4 7 Noroeste 17 Norte 0 1014 -- 91
2020-11-10 00:00:00 10.2 11 Norte 13 Norte 0 1014.1 -- 93
2020-11-09 23:00:00 10.7 0 Calma 11 Norte 0 1014.2 -- 91
2020-11-09 22:00:00 11.7 7 Norte 17 Norte 0 1013.8 -- 89
2020-11-09 21:00:00 13.1 12 Norte 15 Norte 0 1013.4 -- 89
2020-11-09 20:00:00 13 6 Norte 11 Norte 0 1013.2 -- 90
2020-11-09 19:00:00 14 8 Oeste 13 Sudoeste 0 1013.1 -- 87
2020-11-09 18:00:00 15.4 8 Sudoeste 11 Sudoeste 0 1012.4 -- 79
2020-11-09 17:00:00 18.4 10 Sudoeste 15 Sudoeste 0 1012.2 -- 68
2020-11-09 16:00:00 19.5 9 Sudoeste 15 Sudoeste 0 1012.2 -- 66
2020-11-09 15:00:00 20.1 9 Sudoeste 17 Sur 0 1012 -- 63
2020-11-09 14:00:00 19.9 9 Sur 17 Sur 0 1012.2 -- 60
2020-11-09 13:00:00 19.8 11 Sur 17 Sur 0 1012.6 -- 63
2020-11-09 12:00:00 20.2 9 Sur 13 Sur 0 1013.2 -- 55
2020-11-09 11:00:00 18.2 2 Sudeste 9 Nordeste 0 1013.4 -- 67
2020-11-09 10:00:00 14.8 5 Nordeste 11 Nordeste 0 1013.4 -- 76
2020-11-09 09:00:00 12.6 6 Nordeste 15 Norte 0 1013.2 -- 86
2020-11-09 08:00:00 8.1 10 Norte 13 Norte 0 1012.8 -- 95
2020-11-09 07:00:00 7.8 6 Norte 13 Norte 0 1012.4 -- 95
2020-11-09 06:00:00 8.3 8 Norte 13 Norte 0 1012.1 -- 94
2020-11-09 05:00:00 8.3 10 Norte 11 Norte 0 1012.2 -- 96
2020-11-09 04:00:00 8 6 Norte 9 Norte 0 1012.1 -- 94
2020-11-09 03:00:00 8.3 6 Nordeste 11 Norte 0 1012.3 -- 93
2020-11-09 02:00:00 8.8 6 Norte 11 Norte 0 1012.4 -- 94
2020-11-09 01:00:00 8.8 9 Norte 11 Norte 0 1012.8 -- 94
2020-11-09 00:00:00 9 7 Norte 11 Norte 0 1012.9 -- 95
2020-11-08 23:00:00 9.7 7 Norte 9 Norte 0 1013.1 -- 94
2020-11-08 22:00:00 10.3 2 Norte 11 Norte 0 1013.1 -- 93
2020-11-08 21:00:00 11.1 6 Norte 11 Norte 0 1013.1 -- 93
2020-11-08 20:00:00 11.9 7 Norte 11 Norte 0 1013 -- 93
2020-11-08 19:00:00 13.2 8 Noroeste 11 Noroeste 0 1013 -- 88
2020-11-08 18:00:00 16.2 0 Calma 9 Sudoeste 0 1012.7 -- 77
2020-11-08 17:00:00 18.6 6 Sudoeste 17 Sur 0 1012.7 -- 66
2020-11-08 16:00:00 20.1 9 Sur 15 Sur 0 1012.7 -- 59
2020-11-08 15:00:00 20.6 12 Sur 17 Sur 0 1012.9 -- 54
2020-11-08 14:00:00 20.8 8 Sur 13 Sur 0 1013.3 -- 54
2020-11-08 13:00:00 20.4 5 Sur 11 Sudeste 0 1013.8 -- 57
2020-11-08 12:00:00 19.7 2 Sudeste 11 Oeste 0 1014.4 -- 58
2020-11-08 11:00:00 19 5 Sudoeste 9 Sudoeste 0 1014.9 -- 62
2020-11-08 10:00:00 16.4 0 Calma 8 Nordeste 0 1014.9 -- 81
2020-11-08 09:00:00 12.8 4 Nordeste 11 Nordeste 0 1014.6 -- 92
2020-11-08 08:00:00 9.4 6 Norte 11 Norte 0 1014.2 -- 97
2020-11-08 07:00:00 9.1 8 Norte 11 Norte 0 1013.8 -- 97
2020-11-08 06:00:00 9.3 6 Norte 11 Nordeste 0 1013.6 -- 97
2020-11-08 05:00:00 9.6 8 Norte 11 Nordeste 0 1013.6 -- 97
2020-11-08 04:00:00 10.2 7 Norte 13 Nordeste 0 1013.5 -- 97
2020-11-08 03:00:00 10.5 7 Norte 13 Norte 0 1013.9 -- 97
2020-11-08 02:00:00 10.8 6 Norte 9 Nordeste 0 1013.9 -- 97
2020-11-08 01:00:00 12 11 Norte 13 Norte 0 1014.3 -- 97
2020-11-08 00:00:00 12.2 -- -- -- -- 0 1014.1 -- 97
2020-11-07 23:00:00 12.7 9 Norte 13 Norte 0 1013.9 -- 97
2020-11-07 22:00:00 12.8 8 Norte 9 Norte 0 1013.7 -- 97
2020-11-07 21:00:00 13.5 8 Norte 13 Norte 0 1013.2 -- 96
2020-11-07 20:00:00 -- 8 Norte -- -- 0 1012.7 -- --
2020-11-07 19:00:00 15 5 Nordeste -- -- 0 1012.5 -- 95
2020-11-07 18:00:00 15.9 0 Calma 11 Sur 0 1011.6 -- 89
2020-11-07 17:00:00 17.2 8 Sur 15 Sudoeste 0 1011.1 -- 78
2020-11-07 16:00:00 18.4 11 Sudoeste 18 Sudoeste 0 1011.3 -- 73
2020-11-07 15:00:00 19 14 Sudoeste 22 Sudoeste 0 1011.3 -- 69
2020-11-07 14:00:00 18 10 Sudoeste 24 Sudoeste 0 1010.7 -- 82
2020-11-07 13:00:00 17.1 8 Sur 15 Este 0 1011.2 -- 89
2020-11-07 12:00:00 15.9 9 Este 17 Nordeste 2.5 1010.9 -- 97
2020-11-07 11:00:00 15.9 18 Sur 35 Sur 2.8 1011.7 -- 94
2020-11-07 10:00:00 17.5 21 Sudeste 37 Este 1.4 1010.7 -- 96
2020-11-07 09:00:00 17.4 27 Este 46 Este 0.6 1010.4 -- 93
2020-11-07 08:00:00 17.8 29 Este 52 Este 0 1009.9 -- 87
2020-11-07 07:00:00 18.2 26 Este 55 Nordeste 0 1009.9 -- 81
2020-11-07 06:00:00 18.1 31 Nordeste 46 Este 0 1009.9 -- 80
2020-11-07 05:00:00 17.9 27 Nordeste 42 Nordeste 0 1010.1 -- 80
2020-11-07 04:00:00 17.8 30 Nordeste 42 Nordeste 0 1010.6 -- 80
2020-11-07 03:00:00 17.8 29 Nordeste 45 Nordeste 0 1010.9 -- 80
2020-11-07 02:00:00 17.8 28 Nordeste 39 Nordeste 0 1011.3 -- 81
2020-11-07 01:00:00 17.7 27 Nordeste 41 Nordeste 0 1012.1 -- 82
2020-11-07 00:00:00 17.7 26 Nordeste 37 Nordeste 0 1012.6 -- 82
2020-11-06 23:00:00 17.8 24 Nordeste 35 Nordeste 0 1013.1 -- 81
2020-11-06 22:00:00 17.8 26 Nordeste 37 Nordeste 0 1013.4 -- 81
2020-11-06 21:00:00 17.7 20 Nordeste 32 Nordeste 0 1013.5 -- 82
2020-11-06 20:00:00 17.7 22 Nordeste 32 Nordeste 0 1013.5 -- 82
2020-11-06 19:00:00 17.7 18 Nordeste 32 Nordeste 0 1013.7 -- 82
2020-11-06 18:00:00 17.8 24 Nordeste 32 Nordeste 0 1013.4 -- 82
2020-11-06 17:00:00 18.2 21 Nordeste 33 Nordeste 0 1013.7 -- 80
2020-11-06 16:00:00 18.4 24 Nordeste 35 Este 0 1014.1 -- 79
2020-11-06 15:00:00 18.4 22 Nordeste 33 Nordeste 0 1014.5 -- 78
2020-11-06 14:00:00 18.4 22 Nordeste 33 Nordeste 0 1015 -- 78
2020-11-06 13:00:00 18.2 24 Nordeste 33 Este 0 1015.5 -- 79
2020-11-06 12:00:00 18 19 Nordeste 30 Nordeste 0 1016.4 -- 80
2020-11-06 11:00:00 17.1 13 Nordeste 28 Nordeste 0 1016.7 0.4 81
2020-11-06 10:00:00 17 18 Nordeste 35 Nordeste 0 1016.9 -- 81
2020-11-06 09:00:00 16.4 25 Nordeste 41 Nordeste 0 1016.7 -- 83
2020-11-06 08:00:00 16.1 28 Nordeste 37 Nordeste 0 1016.3 -- 83
2020-11-06 07:00:00 15.9 13 Norte 22 Norte 0 1016.4 -- 86
2020-11-06 06:00:00 15.7 16 Norte 28 Nordeste 0 1016 -- 88
2020-11-06 05:00:00 15.9 19 Nordeste 30 Nordeste 0 1015.4 -- 88
2020-11-06 04:00:00 15.7 19 Nordeste 33 Nordeste 0 1015.6 -- 92
2020-11-06 03:00:00 15.6 18 Nordeste 37 Nordeste 0 1015.4 -- 93
2020-11-06 02:00:00 14.9 24 Nordeste 35 Nordeste 4 1015.4 -- 96
2020-11-06 01:00:00 15.1 14 Nordeste 30 Nordeste 2.6 1016.4 -- 94
2020-11-06 00:00:00 16.4 18 Nordeste 32 Nordeste 0 1015.9 -- 82
2020-11-05 23:00:00 16.7 18 Nordeste 45 Nordeste 0 1015.5 -- 78
2020-11-05 22:00:00 16.2 27 Nordeste 41 Nordeste 0 1014.9 -- 79
2020-11-05 21:00:00 16.5 20 Nordeste 35 Nordeste 0 1015.8 -- 75
2020-11-05 20:00:00 16.4 26 Nordeste 35 Nordeste 0 1016 -- 74
2020-11-05 19:00:00 16.4 24 Nordeste 35 Nordeste 0 1016.2 -- 74
2020-11-05 18:00:00 16.1 19 Nordeste 26 Nordeste 0 1015.9 -- 74
2020-11-05 17:00:00 16.5 22 Nordeste 35 Nordeste 0 1015.9 -- 71
2020-11-05 16:00:00 16.9 24 Nordeste 35 Nordeste 0 1016.1 -- 69
2020-11-05 15:00:00 17.3 24 Nordeste 32 Este 0 1016.1 -- 68
2020-11-05 14:00:00 17.7 21 Este 28 Nordeste 0 1016.5 -- 67
2020-11-05 13:00:00 18 15 Este 28 Nordeste 0 1017.1 -- 65
2020-11-05 12:00:00 17.6 18 Nordeste 26 Nordeste 0 1017.7 -- 67
2020-11-05 11:00:00 16.8 12 Este 22 Nordeste 0 1018.4 -- 67
2020-11-05 10:00:00 16.3 13 Nordeste 21 Norte 0 1018 -- 69
2020-11-05 09:00:00 14.7 15 Nordeste 26 Norte 0 1017.5 -- 73
2020-11-05 08:00:00 12.1 14 Norte 28 Norte 0 1017 -- 79
2020-11-05 07:00:00 11.7 17 Norte 26 Norte 0 1016.8 -- 77
2020-11-05 06:00:00 10.8 15 Norte 21 Norte 0 1016.7 -- 77
2020-11-05 05:00:00 9.3 13 Norte 18 Nordeste 0 1017.1 -- 90
2020-11-05 04:00:00 7.7 9 Nordeste 15 Norte 0 1016.9 -- 94
2020-11-05 03:00:00 9.5 13 Noroeste 15 Noroeste 0 1016.9 -- 89
2020-11-05 02:00:00 9.3 11 Noroeste 13 Noroeste 0 1016.8 -- 95
2020-11-05 01:00:00 10.6 0 Calma 9 Norte 0 1016.6 -- 95
2020-11-05 00:00:00 12 7 Nordeste 15 Norte 0 1016.4 -- 91